De Beque, CO (81630)

6:38 AM MST on March 06, 2015 (GMT -0700)
Battlement Mesa | Change Station
CLOSE
Current Station
Personal Weather Station
Location: Parachute, CO
Elevation: 5292 ft
Nearby Weather Stations

Elev 5292 ft 39.43 °N, 108.05 °W | Updated 11 minutes ago

Clear
Clear
19.4 °F
Feels Like 19 °F
N
0.0
Wind Variable Wind from East

Today
High -- | Low -- °F
--% Chance of Precip.
Yesterday
High -- | Low -- °F
Precip. -- in
6:38 AM 6:10 PM
Waxing Gibbous, 99% visible
Pressure 30.48 in
Visibility 10.0 miles
Clouds Clear
Windchill 19 °F
Dew Point 17 °F
Humidity 90%
Rainfall in
Snow Depth Not available.
UV 0 out of 12
Pollen 4.10 out of 12
Air Quality Not available.
Flu Activity Not available.
METAR KGJT 061253Z AUTO 11008KT 10SM CLR M03/M08 A3043 RMK AO2 SLP319 T10331078

More Conditions Fewer Conditions

Pressure 30.48 in
Visibility 10.0 miles
Clouds Clear
Windchill 19 °F
Dew Point 17 °F
Humidity 90%
Rainfall in
Snow Depth Not available.
UV 0 out of 12
Pollen 4.10 out of 12
Air Quality Not available.
Flu Activity Not available.
METAR KGJT 061253Z AUTO 11008KT 10SM CLR M03/M08 A3043 RMK AO2 SLP319 T10331078

More Conditions Fewer Conditions

10-Day Weather Forecast

Almanac

Astronomy

Mar. 06, 2015 Rise Set
Actual Time
Civil Twilight
Nautical Twilight
Astronomical Twilight
Moon
Length of Visible Light
Length of Day
Tomorrow will be .
, % of the Moon is Illuminated

Today's Extremes

State Highs State Lows

Community

WunderPhotos

Upload Photos

1,803,266 photos uploaded!

WunderBlogs® & News

Nearby

Air Quality

  Air Quality AQ Index Pollutant
Not available.

Snow Depth

Station Depth Elevation

Earthquake Activity

City Distance Mag. Time & Date
Minimum magnitude displayed is 2.5.

Coastal Water Temperatures

Place Temperature

Nearby Weather Stations